Nearby METAR Reports

 

LBSF - Sofia (observato, Bulgaria
Distance from station: ENE 64km
Updated: 20/09/2018 23:30
Clear
Clear
 Wind from SE
Wind: SE 13 km/h
Temperature: 15°C
Dew Point: 7°C
Humidity: 59%
Barometer: 1021 hPa
Summary: Clear
Visibility: greater than 10 km
2018/09/20 20:30 LBSF 202030Z 14007KT CAVOK 15/07 Q1021 NOSIG
LWSK - Skopje/Petrovac, Macedonia
Distance from station: WSW 99km
Updated: 20/09/2018 23:30
Clear
Clear
 Wind from varies
Wind: varies 2 km/h
Temperature: 16°C
Dew Point: 9°C
Humidity: 63%
Barometer: 1019 hPa
Summary: Clear
Visibility: greater than 10 km
2018/09/20 20:30 LWSK 202030Z VRB01KT CAVOK 16/09 Q1019 NOSIG
 
LYNI - Nis, Yugoslavia
Distance from station: NNW 127km
Updated: 20/09/2018 23:30
Clear
Clear
 Wind from E
Wind: E 4 km/h
Temperature: 18°C
Dew Point: 10°C
Humidity: 60%
Barometer: 1019 hPa
Summary: Clear
Visibility: greater than 10 km
2018/09/20 20:30 LYNI 202030Z 09002KT CAVOK 18/10 Q1019 NOSIG
BKPR - Prishtina, Yugoslavia
Distance from station: W 141km
Updated: 20/09/2018 23:30
Clear
Clear
 Wind from NW
Wind: NW 9 km/h
Temperature: 16°C
Dew Point: 7°C
Humidity: 55%
Barometer: 1020 hPa
Summary: Clear
Visibility: greater than 10 km
2018/09/20 20:30 BKPR 202030Z 31005KT CAVOK 16/07 Q1020 NOSIG